Missoula, Montana
Current Conditions -  °F | °C
As of 11:31 PM on Tuesday 25 Nov 2014 (Local Time) from KMSO Reporting Station
Light Snow Light Snow  
Wind Chill: 32°   Ceiling: 1900
Heat Index: 32°   Visibility: 1.2mi
Dew Point: 32°   Wind: 0mph
Humidity: 100%   Direction: NA
Pressure: 30.15"   Gusts: NA
Location:  46.87°N, 113.99°W
Report Text: KMSO 260631Z AUTO 00000KT 1 1/4SM -SN BR FEW005 OVC019 00/00 A3015 RMK AO2 P0002 T00000000 $
Loading
Personal Weather Stations






























Interactive Weather Map New forecast layout! Learn more

10-Day Weather Forecast

Advertisements
Track Severe Weather on mobile